sensor_id;sensor_type;location;lat;lon;timestamp;temperature;humidity
27922;DHT22;15261;50.356;10.340;2022-08-19T00:00:06;19.80;99.90
27922;DHT22;15261;50.356;10.340;2022-08-19T00:02:33;19.80;99.90
27922;DHT22;15261;50.356;10.340;2022-08-19T00:04:58;19.70;99.90
27922;DHT22;15261;50.356;10.340;2022-08-19T00:07:24;19.70;99.90
27922;DHT22;15261;50.356;10.340;2022-08-19T00:09:50;19.70;99.90
27922;DHT22;15261;50.356;10.340;2022-08-19T00:12:15;19.60;99.90
27922;DHT22;15261;50.356;10.340;2022-08-19T00:14:41;19.50;99.90
27922;DHT22;15261;50.356;10.340;2022-08-19T00:17:08;19.50;99.90
27922;DHT22;15261;50.356;10.340;2022-08-19T00:19:35;19.40;99.90
27922;DHT22;15261;50.356;10.340;2022-08-19T00:22:01;19.40;99.90
27922;DHT22;15261;50.356;10.340;2022-08-19T00:24:28;19.30;99.90
27922;DHT22;15261;50.356;10.340;2022-08-19T00:26:54;19.40;99.90
27922;DHT22;15261;50.356;10.340;2022-08-19T00:29:48;19.40;99.90
27922;DHT22;15261;50.356;10.340;2022-08-19T00:32:14;19.40;99.90
27922;DHT22;15261;50.356;10.340;2022-08-19T00:34:40;19.40;99.90
27922;DHT22;15261;50.356;10.340;2022-08-19T00:37:05;19.40;99.90
27922;DHT22;15261;50.356;10.340;2022-08-19T00:39:31;19.40;99.90
27922;DHT22;15261;50.356;10.340;2022-08-19T00:41:56;19.40;99.90
27922;DHT22;15261;50.356;10.340;2022-08-19T00:44:26;19.40;99.90
27922;DHT22;15261;50.356;10.340;2022-08-19T00:46:53;19.40;99.90
27922;DHT22;15261;50.356;10.340;2022-08-19T00:52:05;19.50;99.90
27922;DHT22;15261;50.356;10.340;2022-08-19T00:54:31;19.50;99.90
27922;DHT22;15261;50.356;10.340;2022-08-19T00:56:59;19.60;99.90
27922;DHT22;15261;50.356;10.340;2022-08-19T00:59:25;19.60;99.90
27922;DHT22;15261;50.356;10.340;2022-08-19T01:01:51;19.70;99.90
27922;DHT22;15261;50.356;10.340;2022-08-19T01:04:17;19.70;99.90
27922;DHT22;15261;50.356;10.340;2022-08-19T01:06:43;19.70;99.90
27922;DHT22;15261;50.356;10.340;2022-08-19T01:09:08;19.70;99.90
27922;DHT22;15261;50.356;10.340;2022-08-19T01:11:36;19.70;99.90
27922;DHT22;15261;50.356;10.340;2022-08-19T01:14:04;19.60;99.90
27922;DHT22;15261;50.356;10.340;2022-08-19T01:16:32;19.60;99.90
27922;DHT22;15261;50.356;10.340;2022-08-19T01:18:58;19.60;99.90
27922;DHT22;15261;50.356;10.340;2022-08-19T01:21:43;19.60;99.90
27922;DHT22;15261;50.356;10.340;2022-08-19T01:24:11;19.60;99.90
27922;DHT22;15261;50.356;10.340;2022-08-19T01:26:42;19.60;99.90
27922;DHT22;15261;50.356;10.340;2022-08-19T01:29:09;19.70;99.90
27922;DHT22;15261;50.356;10.340;2022-08-19T01:31:35;19.60;99.90
27922;DHT22;15261;50.356;10.340;2022-08-19T01:34:03;19.60;99.90
27922;DHT22;15261;50.356;10.340;2022-08-19T01:36:38;19.60;99.90
27922;DHT22;15261;50.356;10.340;2022-08-19T01:39:21;19.60;99.90
27922;DHT22;15261;50.356;10.340;2022-08-19T01:41:48;19.60;99.90
27922;DHT22;15261;50.356;10.340;2022-08-19T01:44:14;19.60;99.90
27922;DHT22;15261;50.356;10.340;2022-08-19T01:46:41;19.60;99.90
27922;DHT22;15261;50.356;10.340;2022-08-19T01:49:07;19.70;99.90
27922;DHT22;15261;50.356;10.340;2022-08-19T01:51:33;19.70;99.90
27922;DHT22;15261;50.356;10.340;2022-08-19T01:53:59;19.70;99.90
27922;DHT22;15261;50.356;10.340;2022-08-19T01:56:25;19.70;99.90
27922;DHT22;15261;50.356;10.340;2022-08-19T01:58:56;19.70;99.90
27922;DHT22;15261;50.356;10.340;2022-08-19T02:01:23;19.70;99.90
27922;DHT22;15261;50.356;10.340;2022-08-19T02:03:48;19.70;99.90
27922;DHT22;15261;50.356;10.340;2022-08-19T02:06:14;19.70;99.90
27922;DHT22;15261;50.356;10.340;2022-08-19T02:08:42;19.70;99.90
27922;DHT22;15261;50.356;10.340;2022-08-19T02:11:21;19.80;99.90
27922;DHT22;15261;50.356;10.340;2022-08-19T02:13:47;19.80;99.90
27922;DHT22;15261;50.356;10.340;2022-08-19T02:16:16;19.80;99.90
27922;DHT22;15261;50.356;10.340;2022-08-19T02:18:41;19.80;99.90
27922;DHT22;15261;50.356;10.340;2022-08-19T02:21:07;19.90;99.90
27922;DHT22;15261;50.356;10.340;2022-08-19T02:23:32;19.90;99.90
27922;DHT22;15261;50.356;10.340;2022-08-19T02:25:58;19.90;99.90
27922;DHT22;15261;50.356;10.340;2022-08-19T02:28:23;19.90;99.90
27922;DHT22;15261;50.356;10.340;2022-08-19T02:30:49;19.90;99.90
27922;DHT22;15261;50.356;10.340;2022-08-19T02:33:15;19.90;99.90
27922;DHT22;15261;50.356;10.340;2022-08-19T02:35:46;19.90;99.90
27922;DHT22;15261;50.356;10.340;2022-08-19T02:38:14;19.90;99.90
27922;DHT22;15261;50.356;10.340;2022-08-19T02:40:58;19.90;99.90
27922;DHT22;15261;50.356;10.340;2022-08-19T02:43:24;19.90;99.90
27922;DHT22;15261;50.356;10.340;2022-08-19T02:45:52;19.90;99.90
27922;DHT22;15261;50.356;10.340;2022-08-19T02:48:23;19.80;99.90
27922;DHT22;15261;50.356;10.340;2022-08-19T02:50:51;19.80;99.90
27922;DHT22;15261;50.356;10.340;2022-08-19T02:53:27;19.80;99.90
27922;DHT22;15261;50.356;10.340;2022-08-19T02:55:53;19.80;99.90
27922;DHT22;15261;50.356;10.340;2022-08-19T02:58:20;19.80;99.90
27922;DHT22;15261;50.356;10.340;2022-08-19T03:04:12;19.70;99.90
27922;DHT22;15261;50.356;10.340;2022-08-19T03:06:39;19.80;99.90
27922;DHT22;15261;50.356;10.340;2022-08-19T03:09:05;19.80;99.90
27922;DHT22;15261;50.356;10.340;2022-08-19T03:11:32;19.80;99.90
27922;DHT22;15261;50.356;10.340;2022-08-19T03:13:58;19.70;99.90
27922;DHT22;15261;50.356;10.340;2022-08-19T03:16:26;19.60;99.90
27922;DHT22;15261;50.356;10.340;2022-08-19T03:18:53;19.60;99.90
27922;DHT22;15261;50.356;10.340;2022-08-19T03:21:24;19.60;99.90
27922;DHT22;15261;50.356;10.340;2022-08-19T03:23:54;19.60;99.90
27922;DHT22;15261;50.356;10.340;2022-08-19T03:26:19;19.60;99.90
27922;DHT22;15261;50.356;10.340;2022-08-19T03:28:45;19.60;99.90
27922;DHT22;15261;50.356;10.340;2022-08-19T03:31:16;19.60;99.90
27922;DHT22;15261;50.356;10.340;2022-08-19T03:33:42;19.60;99.90
27922;DHT22;15261;50.356;10.340;2022-08-19T03:36:09;19.60;99.90
27922;DHT22;15261;50.356;10.340;2022-08-19T03:38:47;19.60;99.90
27922;DHT22;15261;50.356;10.340;2022-08-19T03:41:23;19.60;99.90
27922;DHT22;15261;50.356;10.340;2022-08-19T03:43:49;19.60;99.90
27922;DHT22;15261;50.356;10.340;2022-08-19T03:46:21;19.60;99.90
27922;DHT22;15261;50.356;10.340;2022-08-19T03:48:48;19.60;99.90
27922;DHT22;15261;50.356;10.340;2022-08-19T03:51:37;19.60;99.90
27922;DHT22;15261;50.356;10.340;2022-08-19T03:54:08;19.60;99.90
27922;DHT22;15261;50.356;10.340;2022-08-19T03:56:35;19.60;99.90
27922;DHT22;15261;50.356;10.340;2022-08-19T03:59:02;19.60;99.90
27922;DHT22;15261;50.356;10.340;2022-08-19T04:01:28;19.60;99.90
27922;DHT22;15261;50.356;10.340;2022-08-19T04:03:59;19.60;99.90
27922;DHT22;15261;50.356;10.340;2022-08-19T04:06:30;19.60;99.90
27922;DHT22;15261;50.356;10.340;2022-08-19T04:08:58;19.60;99.90
27922;DHT22;15261;50.356;10.340;2022-08-19T04:11:33;19.60;99.90
27922;DHT22;15261;50.356;10.340;2022-08-19T04:13:59;19.60;99.90
27922;DHT22;15261;50.356;10.340;2022-08-19T04:16:26;19.60;99.90
27922;DHT22;15261;50.356;10.340;2022-08-19T04:18:56;19.60;99.90
27922;DHT22;15261;50.356;10.340;2022-08-19T04:21:25;19.60;99.90
27922;DHT22;15261;50.356;10.340;2022-08-19T04:23:52;19.60;99.90
27922;DHT22;15261;50.356;10.340;2022-08-19T04:26:24;19.50;99.90
27922;DHT22;15261;50.356;10.340;2022-08-19T04:28:50;19.60;99.90
27922;DHT22;15261;50.356;10.340;2022-08-19T04:31:25;19.50;99.90
27922;DHT22;15261;50.356;10.340;2022-08-19T04:33:56;19.60;99.90
27922;DHT22;15261;50.356;10.340;2022-08-19T04:36:28;19.60;99.90
27922;DHT22;15261;50.356;10.340;2022-08-19T04:38:57;19.60;99.90
27922;DHT22;15261;50.356;10.340;2022-08-19T04:41:23;19.60;99.90
27922;DHT22;15261;50.356;10.340;2022-08-19T04:44:08;19.60;99.90
27922;DHT22;15261;50.356;10.340;2022-08-19T04:46:34;19.60;99.90
27922;DHT22;15261;50.356;10.340;2022-08-19T04:49:01;19.60;99.90
27922;DHT22;15261;50.356;10.340;2022-08-19T04:51:27;19.60;99.90
27922;DHT22;15261;50.356;10.340;2022-08-19T04:53:53;19.60;99.90
27922;DHT22;15261;50.356;10.340;2022-08-19T04:56:20;19.70;99.90
27922;DHT22;15261;50.356;10.340;2022-08-19T04:58:46;19.70;99.90
27922;DHT22;15261;50.356;10.340;2022-08-19T05:01:14;19.70;99.90
27922;DHT22;15261;50.356;10.340;2022-08-19T05:03:42;19.80;99.90
27922;DHT22;15261;50.356;10.340;2022-08-19T05:06:10;19.80;99.90
27922;DHT22;15261;50.356;10.340;2022-08-19T05:08:39;19.80;99.90
27922;DHT22;15261;50.356;10.340;2022-08-19T05:11:27;19.90;99.90
27922;DHT22;15261;50.356;10.340;2022-08-19T05:13:54;19.90;99.90
27922;DHT22;15261;50.356;10.340;2022-08-19T05:16:21;19.90;99.90
27922;DHT22;15261;50.356;10.340;2022-08-19T05:18:47;19.90;99.90
27922;DHT22;15261;50.356;10.340;2022-08-19T05:21:32;19.90;99.90
27922;DHT22;15261;50.356;10.340;2022-08-19T05:24:18;20.00;99.90
27922;DHT22;15261;50.356;10.340;2022-08-19T05:26:46;20.00;99.90
27922;DHT22;15261;50.356;10.340;2022-08-19T05:29:13;20.00;99.90
27922;DHT22;15261;50.356;10.340;2022-08-19T05:31:40;20.00;99.90
27922;DHT22;15261;50.356;10.340;2022-08-19T05:34:06;20.00;99.90
27922;DHT22;15261;50.356;10.340;2022-08-19T05:36:51;20.10;99.90
27922;DHT22;15261;50.356;10.340;2022-08-19T05:39:24;20.10;99.90
27922;DHT22;15261;50.356;10.340;2022-08-19T05:41:57;20.20;99.90
27922;DHT22;15261;50.356;10.340;2022-08-19T05:44:29;20.20;99.90
27922;DHT22;15261;50.356;10.340;2022-08-19T05:47:00;20.30;99.90
27922;DHT22;15261;50.356;10.340;2022-08-19T05:52:57;20.40;99.90
27922;DHT22;15261;50.356;10.340;2022-08-19T05:55:23;20.50;99.90
27922;DHT22;15261;50.356;10.340;2022-08-19T05:57:49;20.50;99.90
27922;DHT22;15261;50.356;10.340;2022-08-19T06:00:15;20.40;99.90
27922;DHT22;15261;50.356;10.340;2022-08-19T06:02:41;20.40;99.90
27922;DHT22;15261;50.356;10.340;2022-08-19T06:05:07;20.40;99.90
27922;DHT22;15261;50.356;10.340;2022-08-19T06:07:38;20.40;99.90
27922;DHT22;15261;50.356;10.340;2022-08-19T06:10:27;20.40;99.90
27922;DHT22;15261;50.356;10.340;2022-08-19T06:12:53;20.40;99.90
27922;DHT22;15261;50.356;10.340;2022-08-19T06:15:19;20.40;99.90
27922;DHT22;15261;50.356;10.340;2022-08-19T06:17:47;20.40;99.90
27922;DHT22;15261;50.356;10.340;2022-08-19T06:20:14;20.40;99.90
27922;DHT22;15261;50.356;10.340;2022-08-19T06:22:40;20.40;99.90
27922;DHT22;15261;50.356;10.340;2022-08-19T06:25:07;20.40;99.90
27922;DHT22;15261;50.356;10.340;2022-08-19T06:27:35;20.50;99.90
27922;DHT22;15261;50.356;10.340;2022-08-19T06:30:02;20.50;99.90
27922;DHT22;15261;50.356;10.340;2022-08-19T06:32:28;20.50;99.90
27922;DHT22;15261;50.356;10.340;2022-08-19T06:35:14;20.50;99.90
27922;DHT22;15261;50.356;10.340;2022-08-19T06:37:40;20.50;99.90
27922;DHT22;15261;50.356;10.340;2022-08-19T06:40:06;20.60;99.90
27922;DHT22;15261;50.356;10.340;2022-08-19T06:42:34;20.60;99.90
27922;DHT22;15261;50.356;10.340;2022-08-19T06:48:08;20.80;99.90
27922;DHT22;15261;50.356;10.340;2022-08-19T06:50:33;20.90;99.90
27922;DHT22;15261;50.356;10.340;2022-08-19T06:52:59;21.00;99.90
27922;DHT22;15261;50.356;10.340;2022-08-19T06:55:26;21.10;99.90
27922;DHT22;15261;50.356;10.340;2022-08-19T06:57:54;21.20;99.90
27922;DHT22;15261;50.356;10.340;2022-08-19T07:00:19;21.20;99.90
27922;DHT22;15261;50.356;10.340;2022-08-19T07:02:45;21.30;99.90
27922;DHT22;15261;50.356;10.340;2022-08-19T07:05:10;21.30;99.90
27922;DHT22;15261;50.356;10.340;2022-08-19T07:07:36;21.40;99.90
27922;DHT22;15261;50.356;10.340;2022-08-19T07:10:02;21.50;99.90
27922;DHT22;15261;50.356;10.340;2022-08-19T07:12:30;21.50;99.90
27922;DHT22;15261;50.356;10.340;2022-08-19T07:14:59;21.60;99.90
27922;DHT22;15261;50.356;10.340;2022-08-19T07:17:26;21.70;99.90
27922;DHT22;15261;50.356;10.340;2022-08-19T07:20:25;21.70;99.90
27922;DHT22;15261;50.356;10.340;2022-08-19T07:22:50;21.90;99.90
27922;DHT22;15261;50.356;10.340;2022-08-19T07:25:16;22.00;99.90
27922;DHT22;15261;50.356;10.340;2022-08-19T07:27:43;22.10;99.90
27922;DHT22;15261;50.356;10.340;2022-08-19T07:30:32;22.30;99.90
27922;DHT22;15261;50.356;10.340;2022-08-19T07:32:58;22.40;99.90
27922;DHT22;15261;50.356;10.340;2022-08-19T07:35:23;22.70;99.90
27922;DHT22;15261;50.356;10.340;2022-08-19T07:37:50;22.90;99.90
27922;DHT22;15261;50.356;10.340;2022-08-19T07:40:15;23.00;99.90
27922;DHT22;15261;50.356;10.340;2022-08-19T07:43:03;23.10;99.90
27922;DHT22;15261;50.356;10.340;2022-08-19T07:45:28;23.30;99.90
27922;DHT22;15261;50.356;10.340;2022-08-19T07:47:54;23.30;99.90
27922;DHT22;15261;50.356;10.340;2022-08-19T07:50:21;23.30;99.90
27922;DHT22;15261;50.356;10.340;2022-08-19T07:52:50;22.90;99.90
27922;DHT22;15261;50.356;10.340;2022-08-19T07:55:20;22.70;99.90
27922;DHT22;15261;50.356;10.340;2022-08-19T07:57:46;22.60;99.90
27922;DHT22;15261;50.356;10.340;2022-08-19T08:00:12;22.50;99.90
27922;DHT22;15261;50.356;10.340;2022-08-19T08:02:38;22.50;99.90
27922;DHT22;15261;50.356;10.340;2022-08-19T08:05:04;22.50;99.90
27922;DHT22;15261;50.356;10.340;2022-08-19T08:07:48;22.50;99.90
27922;DHT22;15261;50.356;10.340;2022-08-19T08:10:32;22.60;99.90
27922;DHT22;15261;50.356;10.340;2022-08-19T08:12:58;22.80;99.90
27922;DHT22;15261;50.356;10.340;2022-08-19T08:15:23;23.00;99.90
27922;DHT22;15261;50.356;10.340;2022-08-19T08:17:56;23.20;99.90
27922;DHT22;15261;50.356;10.340;2022-08-19T08:20:23;23.40;99.90
27922;DHT22;15261;50.356;10.340;2022-08-19T08:22:48;23.40;99.90
27922;DHT22;15261;50.356;10.340;2022-08-19T08:25:34;23.50;99.90
27922;DHT22;15261;50.356;10.340;2022-08-19T08:28:01;23.50;99.90
27922;DHT22;15261;50.356;10.340;2022-08-19T08:30:28;23.70;99.90
27922;DHT22;15261;50.356;10.340;2022-08-19T08:32:55;23.80;99.90
27922;DHT22;15261;50.356;10.340;2022-08-19T08:35:23;23.80;99.90
27922;DHT22;15261;50.356;10.340;2022-08-19T08:37:51;23.90;99.90
27922;DHT22;15261;50.356;10.340;2022-08-19T08:42:53;24.00;99.90
27922;DHT22;15261;50.356;10.340;2022-08-19T08:45:21;23.90;99.90
27922;DHT22;15261;50.356;10.340;2022-08-19T08:47:50;23.80;99.90
27922;DHT22;15261;50.356;10.340;2022-08-19T08:52:53;23.80;99.90
27922;DHT22;15261;50.356;10.340;2022-08-19T08:55:24;23.70;99.90
27922;DHT22;15261;50.356;10.340;2022-08-19T09:00:25;24.00;99.90
27922;DHT22;15261;50.356;10.340;2022-08-19T09:02:53;24.20;99.90
27922;DHT22;15261;50.356;10.340;2022-08-19T09:05:20;24.20;99.90
27922;DHT22;15261;50.356;10.340;2022-08-19T09:10:43;24.20;99.90
27922;DHT22;15261;50.356;10.340;2022-08-19T09:16:19;24.20;99.90
27922;DHT22;15261;50.356;10.340;2022-08-19T09:19:00;24.10;99.90
27922;DHT22;15261;50.356;10.340;2022-08-19T09:21:26;24.30;99.90
27922;DHT22;15261;50.356;10.340;2022-08-19T09:23:53;24.40;99.90
27922;DHT22;15261;50.356;10.340;2022-08-19T09:26:20;24.60;99.90
27922;DHT22;15261;50.356;10.340;2022-08-19T09:28:49;24.70;99.90
27922;DHT22;15261;50.356;10.340;2022-08-19T09:31:24;24.70;99.90
27922;DHT22;15261;50.356;10.340;2022-08-19T09:33:51;24.80;99.90
27922;DHT22;15261;50.356;10.340;2022-08-19T09:36:19;24.80;99.90
27922;DHT22;15261;50.356;10.340;2022-08-19T09:38:45;24.70;99.90
27922;DHT22;15261;50.356;10.340;2022-08-19T09:41:15;24.70;99.90
27922;DHT22;15261;50.356;10.340;2022-08-19T09:43:42;24.90;99.90
27922;DHT22;15261;50.356;10.340;2022-08-19T09:46:09;25.10;99.90
27922;DHT22;15261;50.356;10.340;2022-08-19T09:48:38;25.10;99.10
27922;DHT22;15261;50.356;10.340;2022-08-19T09:51:06;25.10;98.80
27922;DHT22;15261;50.356;10.340;2022-08-19T09:53:46;25.10;98.90
27922;DHT22;15261;50.356;10.340;2022-08-19T09:56:13;25.40;98.40
27922;DHT22;15261;50.356;10.340;2022-08-19T09:58:39;25.40;96.50
27922;DHT22;15261;50.356;10.340;2022-08-19T10:01:06;25.50;96.10
27922;DHT22;15261;50.356;10.340;2022-08-19T10:03:34;25.70;95.30
27922;DHT22;15261;50.356;10.340;2022-08-19T10:06:04;25.60;94.90
27922;DHT22;15261;50.356;10.340;2022-08-19T10:08:35;25.70;94.70
27922;DHT22;15261;50.356;10.340;2022-08-19T10:11:03;25.30;93.90
27922;DHT22;15261;50.356;10.340;2022-08-19T10:13:31;25.10;94.10
27922;DHT22;15261;50.356;10.340;2022-08-19T10:16:04;25.00;94.00
27922;DHT22;15261;50.356;10.340;2022-08-19T10:18:41;25.00;93.80
27922;DHT22;15261;50.356;10.340;2022-08-19T10:21:16;24.90;92.80
27922;DHT22;15261;50.356;10.340;2022-08-19T10:23:47;25.00;92.60
27922;DHT22;15261;50.356;10.340;2022-08-19T10:26:17;25.20;92.40
27922;DHT22;15261;50.356;10.340;2022-08-19T10:28:43;25.20;91.60
27922;DHT22;15261;50.356;10.340;2022-08-19T10:31:15;25.40;91.30
27922;DHT22;15261;50.356;10.340;2022-08-19T10:33:43;25.60;91.30
27922;DHT22;15261;50.356;10.340;2022-08-19T10:36:11;25.80;90.90
27922;DHT22;15261;50.356;10.340;2022-08-19T10:38:38;26.00;90.70
27922;DHT22;15261;50.356;10.340;2022-08-19T10:41:16;26.30;90.40
27922;DHT22;15261;50.356;10.340;2022-08-19T10:43:42;26.30;88.70
27922;DHT22;15261;50.356;10.340;2022-08-19T10:46:46;26.30;89.30
27922;DHT22;15261;50.356;10.340;2022-08-19T10:49:12;26.40;88.50
27922;DHT22;15261;50.356;10.340;2022-08-19T10:52:00;26.50;87.20
27922;DHT22;15261;50.356;10.340;2022-08-19T10:54:44;26.70;86.60
27922;DHT22;15261;50.356;10.340;2022-08-19T10:57:38;26.90;86.80
27922;DHT22;15261;50.356;10.340;2022-08-19T11:00:04;26.70;84.00
27922;DHT22;15261;50.356;10.340;2022-08-19T11:02:30;26.60;84.70
27922;DHT22;15261;50.356;10.340;2022-08-19T11:04:57;26.60;84.80
27922;DHT22;15261;50.356;10.340;2022-08-19T11:07:23;26.90;84.50
27922;DHT22;15261;50.356;10.340;2022-08-19T11:09:49;26.70;82.00
27922;DHT22;15261;50.356;10.340;2022-08-19T11:12:14;26.80;82.50
27922;DHT22;15261;50.356;10.340;2022-08-19T11:14:40;26.60;82.70
27922;DHT22;15261;50.356;10.340;2022-08-19T11:17:06;26.30;82.70
27922;DHT22;15261;50.356;10.340;2022-08-19T11:19:32;26.20;83.60
27922;DHT22;15261;50.356;10.340;2022-08-19T11:22:17;26.10;84.60
27922;DHT22;15261;50.356;10.340;2022-08-19T11:24:43;26.00;85.50
27922;DHT22;15261;50.356;10.340;2022-08-19T11:27:11;26.10;85.30
27922;DHT22;15261;50.356;10.340;2022-08-19T11:29:38;26.10;83.70
27922;DHT22;15261;50.356;10.340;2022-08-19T11:32:09;25.90;84.00
27922;DHT22;15261;50.356;10.340;2022-08-19T11:34:36;25.80;82.90
27922;DHT22;15261;50.356;10.340;2022-08-19T11:37:03;25.80;83.90
27922;DHT22;15261;50.356;10.340;2022-08-19T11:39:31;25.70;83.80
27922;DHT22;15261;50.356;10.340;2022-08-19T11:42:12;25.60;83.00
27922;DHT22;15261;50.356;10.340;2022-08-19T11:44:59;25.40;82.50
27922;DHT22;15261;50.356;10.340;2022-08-19T11:47:29;25.50;85.70
27922;DHT22;15261;50.356;10.340;2022-08-19T11:49:57;25.60;82.20
27922;DHT22;15261;50.356;10.340;2022-08-19T11:52:22;25.50;82.00
27922;DHT22;15261;50.356;10.340;2022-08-19T11:54:48;25.60;81.70
27922;DHT22;15261;50.356;10.340;2022-08-19T11:57:14;25.60;82.40
27922;DHT22;15261;50.356;10.340;2022-08-19T11:59:48;25.70;82.60
27922;DHT22;15261;50.356;10.340;2022-08-19T12:02:14;25.80;81.40
27922;DHT22;15261;50.356;10.340;2022-08-19T12:04:40;25.90;82.20
27922;DHT22;15261;50.356;10.340;2022-08-19T12:07:06;26.00;81.30
27922;DHT22;15261;50.356;10.340;2022-08-19T12:09:31;26.00;80.70
27922;DHT22;15261;50.356;10.340;2022-08-19T12:11:59;25.90;80.30
27922;DHT22;15261;50.356;10.340;2022-08-19T12:14:26;25.90;81.10
27922;DHT22;15261;50.356;10.340;2022-08-19T12:16:53;26.10;81.00
27922;DHT22;15261;50.356;10.340;2022-08-19T12:19:19;26.10;79.30
27922;DHT22;15261;50.356;10.340;2022-08-19T12:21:44;26.20;79.60
27922;DHT22;15261;50.356;10.340;2022-08-19T12:24:10;26.30;79.00
27922;DHT22;15261;50.356;10.340;2022-08-19T12:26:36;26.10;79.10
27922;DHT22;15261;50.356;10.340;2022-08-19T12:29:02;26.20;80.20
27922;DHT22;15261;50.356;10.340;2022-08-19T12:31:28;26.20;79.00
27922;DHT22;15261;50.356;10.340;2022-08-19T12:33:54;26.30;77.40
27922;DHT22;15261;50.356;10.340;2022-08-19T12:36:20;26.30;78.70
27922;DHT22;15261;50.356;10.340;2022-08-19T12:38:47;26.50;79.30
27922;DHT22;15261;50.356;10.340;2022-08-19T12:41:14;26.50;78.30
27922;DHT22;15261;50.356;10.340;2022-08-19T12:43:40;26.60;78.30
27922;DHT22;15261;50.356;10.340;2022-08-19T12:46:10;26.40;77.40
27922;DHT22;15261;50.356;10.340;2022-08-19T12:48:36;26.50;78.60
27922;DHT22;15261;50.356;10.340;2022-08-19T12:51:18;26.50;77.10
27922;DHT22;15261;50.356;10.340;2022-08-19T12:54:08;26.50;77.10
27922;DHT22;15261;50.356;10.340;2022-08-19T12:56:40;26.50;76.70
27922;DHT22;15261;50.356;10.340;2022-08-19T12:59:09;26.40;78.50
27922;DHT22;15261;50.356;10.340;2022-08-19T13:01:43;26.40;78.30
27922;DHT22;15261;50.356;10.340;2022-08-19T13:04:09;26.60;78.20
27922;DHT22;15261;50.356;10.340;2022-08-19T13:06:39;26.60;76.90
27922;DHT22;15261;50.356;10.340;2022-08-19T13:09:23;26.50;76.70
27922;DHT22;15261;50.356;10.340;2022-08-19T13:11:59;26.40;76.80
27922;DHT22;15261;50.356;10.340;2022-08-19T13:14:36;26.50;77.50
27922;DHT22;15261;50.356;10.340;2022-08-19T13:17:14;26.40;77.10
27922;DHT22;15261;50.356;10.340;2022-08-19T13:19:50;26.50;76.90
27922;DHT22;15261;50.356;10.340;2022-08-19T13:22:25;26.60;76.40
27922;DHT22;15261;50.356;10.340;2022-08-19T13:28:13;26.70;77.20
27922;DHT22;15261;50.356;10.340;2022-08-19T13:30:47;26.90;76.00
27922;DHT22;15261;50.356;10.340;2022-08-19T13:33:36;27.10;75.80
27922;DHT22;15261;50.356;10.340;2022-08-19T13:39:25;27.10;73.80
27922;DHT22;15261;50.356;10.340;2022-08-19T13:41:51;27.00;72.50
27922;DHT22;15261;50.356;10.340;2022-08-19T13:44:17;27.00;73.80
27922;DHT22;15261;50.356;10.340;2022-08-19T13:46:44;26.90;74.40
27922;DHT22;15261;50.356;10.340;2022-08-19T13:49:11;26.90;74.90
27922;DHT22;15261;50.356;10.340;2022-08-19T13:51:39;26.70;73.80
27922;DHT22;15261;50.356;10.340;2022-08-19T13:54:08;26.80;74.60
27922;DHT22;15261;50.356;10.340;2022-08-19T13:56:35;26.70;74.40
27922;DHT22;15261;50.356;10.340;2022-08-19T13:59:04;26.60;73.90
27922;DHT22;15261;50.356;10.340;2022-08-19T14:01:30;26.60;74.70
27922;DHT22;15261;50.356;10.340;2022-08-19T14:03:56;26.60;74.50
27922;DHT22;15261;50.356;10.340;2022-08-19T14:06:21;26.50;75.80
27922;DHT22;15261;50.356;10.340;2022-08-19T14:08:48;26.50;76.10
27922;DHT22;15261;50.356;10.340;2022-08-19T14:14:12;26.50;75.30
27922;DHT22;15261;50.356;10.340;2022-08-19T14:16:38;26.60;76.40
27922;DHT22;15261;50.356;10.340;2022-08-19T14:19:03;26.50;76.30
27922;DHT22;15261;50.356;10.340;2022-08-19T14:21:29;26.60;76.10
27922;DHT22;15261;50.356;10.340;2022-08-19T14:23:54;26.60;75.70
27922;DHT22;15261;50.356;10.340;2022-08-19T14:26:22;26.60;76.00
27922;DHT22;15261;50.356;10.340;2022-08-19T14:28:48;26.50;75.10
27922;DHT22;15261;50.356;10.340;2022-08-19T14:31:18;26.50;75.40
27922;DHT22;15261;50.356;10.340;2022-08-19T14:33:46;26.40;75.60
27922;DHT22;15261;50.356;10.340;2022-08-19T14:36:11;26.40;75.70
27922;DHT22;15261;50.356;10.340;2022-08-19T14:38:37;26.50;77.20
27922;DHT22;15261;50.356;10.340;2022-08-19T14:41:19;26.60;77.00
27922;DHT22;15261;50.356;10.340;2022-08-19T14:43:48;26.60;76.90
27922;DHT22;15261;50.356;10.340;2022-08-19T14:46:16;26.70;76.20
27922;DHT22;15261;50.356;10.340;2022-08-19T14:48:42;26.80;76.30
27922;DHT22;15261;50.356;10.340;2022-08-19T14:51:08;26.90;76.30
27922;DHT22;15261;50.356;10.340;2022-08-19T14:53:34;26.80;76.30
27922;DHT22;15261;50.356;10.340;2022-08-19T14:56:00;27.00;76.20
27922;DHT22;15261;50.356;10.340;2022-08-19T14:58:26;26.90;75.70
27922;DHT22;15261;50.356;10.340;2022-08-19T15:00:52;26.90;75.70
27922;DHT22;15261;50.356;10.340;2022-08-19T15:03:18;26.70;76.00
27922;DHT22;15261;50.356;10.340;2022-08-19T15:05:43;26.80;77.00
27922;DHT22;15261;50.356;10.340;2022-08-19T15:08:09;26.70;76.40
27922;DHT22;15261;50.356;10.340;2022-08-19T15:10:35;26.70;77.20
27922;DHT22;15261;50.356;10.340;2022-08-19T15:13:03;26.70;76.00
27922;DHT22;15261;50.356;10.340;2022-08-19T15:15:28;26.80;76.20
27922;DHT22;15261;50.356;10.340;2022-08-19T15:17:54;26.80;74.90
27922;DHT22;15261;50.356;10.340;2022-08-19T15:20:20;26.80;75.40
27922;DHT22;15261;50.356;10.340;2022-08-19T15:22:48;26.90;75.60
27922;DHT22;15261;50.356;10.340;2022-08-19T15:25:16;27.00;74.30
27922;DHT22;15261;50.356;10.340;2022-08-19T15:27:42;27.10;72.50
27922;DHT22;15261;50.356;10.340;2022-08-19T15:30:09;27.20;74.10
27922;DHT22;15261;50.356;10.340;2022-08-19T15:32:36;27.20;74.00
27922;DHT22;15261;50.356;10.340;2022-08-19T15:35:04;27.10;73.70
27922;DHT22;15261;50.356;10.340;2022-08-19T15:37:30;27.20;73.80
27922;DHT22;15261;50.356;10.340;2022-08-19T15:39:56;27.20;73.50
27922;DHT22;15261;50.356;10.340;2022-08-19T15:42:21;27.20;73.70
27922;DHT22;15261;50.356;10.340;2022-08-19T15:44:47;27.10;71.40
27922;DHT22;15261;50.356;10.340;2022-08-19T15:47:13;27.20;71.50
27922;DHT22;15261;50.356;10.340;2022-08-19T15:49:39;27.20;71.70
27922;DHT22;15261;50.356;10.340;2022-08-19T15:52:05;27.40;71.20
27922;DHT22;15261;50.356;10.340;2022-08-19T15:54:32;27.60;70.80
27922;DHT22;15261;50.356;10.340;2022-08-19T15:56:58;27.80;68.70
27922;DHT22;15261;50.356;10.340;2022-08-19T15:59:42;27.70;67.90
27922;DHT22;15261;50.356;10.340;2022-08-19T16:02:27;27.70;68.30